Ana Sayfa
METAR-TAF:

METAR-TAF

Havaalanları :

Tebük, Suudi Arabistan

Enlem: 28-22N, Boylam: 036-36E, yükseklik: 778 m

Güncel hava durumu gözlemi

Rapor saat 22:00 UTC de 46 dakika önce yapıldı.
Rüzgar güneydoğudan 6 kt
Sıcaklık 28°C
Nem 13%
Basınç 1016 hPa
Görüş mesafesi 10 km veya daha fazla
1500 m altında bulut yok ve kümülonimbus yok

METAR: OETB 232200Z 14006KT CAVOK 28/M03 Q1016 NOSIG

Saat: 01:46 (22:46 UTC)

Tahmin

Rapor saat 11:00 UTC de 11 saat ve 46 dakika önce yapıldı.
Ayın 23'si saat 12 UTC'den ayın 24'si saat 18 UTC'ye kadar geçerli Tahmin
Rüzgar doğudan 10 kt
Görüş mesafesi 10 km veya daha fazla
1500 m altında bulut yok ve kümülonimbus yok
Dönüşüyor
ayın 23'si saat 20 UTC'den ayın 23'si saat 22 UTC'ye kadar
Rüzgar değişken yönden 3 kt

TAF: OETB 231100Z 2312/2418 09010KT CAVOK BECMG 2320/2322 VRB03KT

4.000'den fazla havaalanı için hava durumu gözlemleri ve tahminleri (METAR ve TAF raporları).

Kullanılabilir istasyonlar harita üzerinde sarı ve kırmızı noktalarla gösterilir.

İstasyonun adını görmek için fareyi noktanın üzerinde gezdirin.

Sonrasında hava gözlem ve tahminlerini görmek için tıklayın.

Haritayı değiştirmek için: yaklaştırmak için siyah artı işaretli yeşil düğmeye ve uzaklaştırmak için de eksi işaretli düğmeye hızla tıklayın; bitişik haritalar için yeşil okları kullanın.


METAR-TAF: